sensor_id;sensor_type;location;lat;lon;timestamp;temperature;humidity
39033;DHT22;24794;51.982;5.878;2023-01-28T00:00:23;5.70;99.90
39033;DHT22;24794;51.982;5.878;2023-01-28T00:01:24;5.70;99.90
39033;DHT22;24794;51.982;5.878;2023-01-28T00:02:24;5.70;99.90
39033;DHT22;24794;51.982;5.878;2023-01-28T00:03:25;5.70;99.90
39033;DHT22;24794;51.982;5.878;2023-01-28T00:04:26;5.70;99.90
39033;DHT22;24794;51.982;5.878;2023-01-28T00:05:26;5.70;99.90
39033;DHT22;24794;51.982;5.878;2023-01-28T00:06:29;5.70;99.90
39033;DHT22;24794;51.982;5.878;2023-01-28T00:07:29;5.70;99.90
39033;DHT22;24794;51.982;5.878;2023-01-28T00:08:31;5.70;99.90
39033;DHT22;24794;51.982;5.878;2023-01-28T00:09:33;5.70;99.90
39033;DHT22;24794;51.982;5.878;2023-01-28T00:10:33;5.70;99.90
39033;DHT22;24794;51.982;5.878;2023-01-28T00:11:34;5.70;99.90
39033;DHT22;24794;51.982;5.878;2023-01-28T00:12:35;5.70;99.90
39033;DHT22;24794;51.982;5.878;2023-01-28T00:13:35;5.70;99.90
39033;DHT22;24794;51.982;5.878;2023-01-28T00:14:36;5.70;99.90
39033;DHT22;24794;51.982;5.878;2023-01-28T00:15:37;5.60;99.90
39033;DHT22;24794;51.982;5.878;2023-01-28T00:16:38;5.70;99.90
39033;DHT22;24794;51.982;5.878;2023-01-28T00:17:38;5.60;99.90
39033;DHT22;24794;51.982;5.878;2023-01-28T00:18:39;5.60;99.90
39033;DHT22;24794;51.982;5.878;2023-01-28T00:19:40;5.60;99.90
39033;DHT22;24794;51.982;5.878;2023-01-28T00:20:41;5.60;99.90
39033;DHT22;24794;51.982;5.878;2023-01-28T00:21:41;5.60;99.90
39033;DHT22;24794;51.982;5.878;2023-01-28T00:22:48;5.60;99.90
39033;DHT22;24794;51.982;5.878;2023-01-28T00:23:53;5.50;99.90
39033;DHT22;24794;51.982;5.878;2023-01-28T00:24:54;5.50;99.90
39033;DHT22;24794;51.982;5.878;2023-01-28T00:25:58;5.60;99.90
39033;DHT22;24794;51.982;5.878;2023-01-28T00:26:59;5.60;99.90
39033;DHT22;24794;51.982;5.878;2023-01-28T00:27:59;5.60;99.90
39033;DHT22;24794;51.982;5.878;2023-01-28T00:29:00;5.60;99.90
39033;DHT22;24794;51.982;5.878;2023-01-28T00:30:01;5.60;99.90
39033;DHT22;24794;51.982;5.878;2023-01-28T00:31:20;5.60;99.90
39033;DHT22;24794;51.982;5.878;2023-01-28T00:32:21;5.60;99.90
39033;DHT22;24794;51.982;5.878;2023-01-28T00:33:22;5.60;99.90
39033;DHT22;24794;51.982;5.878;2023-01-28T00:34:22;5.70;99.90
39033;DHT22;24794;51.982;5.878;2023-01-28T00:35:23;5.70;99.90
39033;DHT22;24794;51.982;5.878;2023-01-28T00:36:24;5.60;99.90
39033;DHT22;24794;51.982;5.878;2023-01-28T00:37:25;5.60;99.90
39033;DHT22;24794;51.982;5.878;2023-01-28T00:38:26;5.60;99.90
39033;DHT22;24794;51.982;5.878;2023-01-28T00:39:27;5.70;99.90
39033;DHT22;24794;51.982;5.878;2023-01-28T00:40:28;5.70;99.90
39033;DHT22;24794;51.982;5.878;2023-01-28T00:41:29;5.70;99.90
39033;DHT22;24794;51.982;5.878;2023-01-28T00:42:30;5.60;99.90
39033;DHT22;24794;51.982;5.878;2023-01-28T00:43:30;5.60;99.90
39033;DHT22;24794;51.982;5.878;2023-01-28T00:44:31;5.60;99.90
39033;DHT22;24794;51.982;5.878;2023-01-28T00:45:32;5.60;99.90
39033;DHT22;24794;51.982;5.878;2023-01-28T00:46:32;5.60;99.90
39033;DHT22;24794;51.982;5.878;2023-01-28T00:47:33;5.60;99.90
39033;DHT22;24794;51.982;5.878;2023-01-28T00:48:34;5.60;99.90
39033;DHT22;24794;51.982;5.878;2023-01-28T00:49:35;5.60;99.90
39033;DHT22;24794;51.982;5.878;2023-01-28T00:50:36;5.60;99.90
39033;DHT22;24794;51.982;5.878;2023-01-28T00:51:37;5.60;99.90
39033;DHT22;24794;51.982;5.878;2023-01-28T00:52:37;5.60;99.90
39033;DHT22;24794;51.982;5.878;2023-01-28T00:53:39;5.60;99.90
39033;DHT22;24794;51.982;5.878;2023-01-28T00:54:39;5.60;99.90
39033;DHT22;24794;51.982;5.878;2023-01-28T00:55:40;5.60;99.90
39033;DHT22;24794;51.982;5.878;2023-01-28T00:56:41;5.60;99.90
39033;DHT22;24794;51.982;5.878;2023-01-28T00:57:41;5.60;99.90
39033;DHT22;24794;51.982;5.878;2023-01-28T00:58:43;5.60;99.90
39033;DHT22;24794;51.982;5.878;2023-01-28T00:59:44;5.60;99.90
39033;DHT22;24794;51.982;5.878;2023-01-28T01:00:44;5.50;99.90
39033;DHT22;24794;51.982;5.878;2023-01-28T01:01:45;5.50;99.90
39033;DHT22;24794;51.982;5.878;2023-01-28T01:02:46;5.50;99.90
39033;DHT22;24794;51.982;5.878;2023-01-28T01:03:47;5.50;99.90
39033;DHT22;24794;51.982;5.878;2023-01-28T01:04:53;5.60;99.90
39033;DHT22;24794;51.982;5.878;2023-01-28T01:06:00;5.50;99.90
39033;DHT22;24794;51.982;5.878;2023-01-28T01:07:00;5.60;99.90
39033;DHT22;24794;51.982;5.878;2023-01-28T01:08:01;5.60;99.90
39033;DHT22;24794;51.982;5.878;2023-01-28T01:09:03;5.60;99.90
39033;DHT22;24794;51.982;5.878;2023-01-28T01:10:05;5.60;99.90
39033;DHT22;24794;51.982;5.878;2023-01-28T01:11:07;5.60;99.90
39033;DHT22;24794;51.982;5.878;2023-01-28T01:12:08;5.50;99.90
39033;DHT22;24794;51.982;5.878;2023-01-28T01:13:09;5.50;99.90
39033;DHT22;24794;51.982;5.878;2023-01-28T01:14:09;5.50;99.90
39033;DHT22;24794;51.982;5.878;2023-01-28T01:15:10;5.50;99.90
39033;DHT22;24794;51.982;5.878;2023-01-28T01:16:13;5.50;99.90
39033;DHT22;24794;51.982;5.878;2023-01-28T01:17:15;5.50;99.90
39033;DHT22;24794;51.982;5.878;2023-01-28T01:18:16;5.50;99.90
39033;DHT22;24794;51.982;5.878;2023-01-28T01:19:17;5.50;99.90
39033;DHT22;24794;51.982;5.878;2023-01-28T01:20:20;5.50;99.90
39033;DHT22;24794;51.982;5.878;2023-01-28T01:21:23;5.40;99.90
39033;DHT22;24794;51.982;5.878;2023-01-28T01:22:24;5.40;99.90
39033;DHT22;24794;51.982;5.878;2023-01-28T01:23:29;5.50;99.90
39033;DHT22;24794;51.982;5.878;2023-01-28T01:24:30;5.50;99.90
39033;DHT22;24794;51.982;5.878;2023-01-28T01:25:33;5.50;99.90
39033;DHT22;24794;51.982;5.878;2023-01-28T01:26:34;5.40;99.90
39033;DHT22;24794;51.982;5.878;2023-01-28T01:27:34;5.40;99.90
39033;DHT22;24794;51.982;5.878;2023-01-28T01:28:36;5.50;99.90
39033;DHT22;24794;51.982;5.878;2023-01-28T01:29:37;5.50;99.90
39033;DHT22;24794;51.982;5.878;2023-01-28T01:30:38;5.50;99.90
39033;DHT22;24794;51.982;5.878;2023-01-28T01:31:39;5.50;99.90
39033;DHT22;24794;51.982;5.878;2023-01-28T01:32:40;5.50;99.90
39033;DHT22;24794;51.982;5.878;2023-01-28T01:33:42;5.50;99.90
39033;DHT22;24794;51.982;5.878;2023-01-28T01:34:43;5.40;99.90
39033;DHT22;24794;51.982;5.878;2023-01-28T01:35:44;5.40;99.90
39033;DHT22;24794;51.982;5.878;2023-01-28T01:36:44;5.40;99.90
39033;DHT22;24794;51.982;5.878;2023-01-28T01:37:45;5.40;99.90
39033;DHT22;24794;51.982;5.878;2023-01-28T01:38:46;5.40;99.90
39033;DHT22;24794;51.982;5.878;2023-01-28T01:39:46;5.30;99.90
39033;DHT22;24794;51.982;5.878;2023-01-28T01:40:47;5.30;99.90
39033;DHT22;24794;51.982;5.878;2023-01-28T01:41:48;5.30;99.90
39033;DHT22;24794;51.982;5.878;2023-01-28T01:42:48;5.30;99.90
39033;DHT22;24794;51.982;5.878;2023-01-28T01:43:53;5.20;99.90
39033;DHT22;24794;51.982;5.878;2023-01-28T01:46:00;5.20;99.90
39033;DHT22;24794;51.982;5.878;2023-01-28T01:47:00;5.20;99.90
39033;DHT22;24794;51.982;5.878;2023-01-28T01:48:10;5.20;99.90
39033;DHT22;24794;51.982;5.878;2023-01-28T01:51:30;5.20;99.90
39033;DHT22;24794;51.982;5.878;2023-01-28T01:52:34;5.30;99.90
39033;DHT22;24794;51.982;5.878;2023-01-28T01:53:38;5.30;99.90
39033;DHT22;24794;51.982;5.878;2023-01-28T01:54:41;5.30;99.90
39033;DHT22;24794;51.982;5.878;2023-01-28T01:55:46;5.30;99.90
39033;DHT22;24794;51.982;5.878;2023-01-28T01:56:49;5.30;99.90
39033;DHT22;24794;51.982;5.878;2023-01-28T01:57:51;5.30;99.90
39033;DHT22;24794;51.982;5.878;2023-01-28T01:58:54;5.40;99.90
39033;DHT22;24794;51.982;5.878;2023-01-28T01:59:56;5.40;99.90
39033;DHT22;24794;51.982;5.878;2023-01-28T02:01:06;5.40;99.90
39033;DHT22;24794;51.982;5.878;2023-01-28T02:02:07;5.40;99.90
39033;DHT22;24794;51.982;5.878;2023-01-28T02:03:10;5.40;99.90
39033;DHT22;24794;51.982;5.878;2023-01-28T02:04:28;5.40;99.90
39033;DHT22;24794;51.982;5.878;2023-01-28T02:05:30;5.40;99.90
39033;DHT22;24794;51.982;5.878;2023-01-28T02:06:31;5.40;99.90
39033;DHT22;24794;51.982;5.878;2023-01-28T02:07:33;5.40;99.90
39033;DHT22;24794;51.982;5.878;2023-01-28T02:08:34;5.40;99.90
39033;DHT22;24794;51.982;5.878;2023-01-28T02:09:35;5.40;99.90
39033;DHT22;24794;51.982;5.878;2023-01-28T02:10:36;5.40;99.90
39033;DHT22;24794;51.982;5.878;2023-01-28T02:11:37;5.50;99.90
39033;DHT22;24794;51.982;5.878;2023-01-28T02:12:54;5.40;99.90
39033;DHT22;24794;51.982;5.878;2023-01-28T02:13:57;5.40;99.90
39033;DHT22;24794;51.982;5.878;2023-01-28T02:15:06;5.40;99.90
39033;DHT22;24794;51.982;5.878;2023-01-28T02:16:07;5.40;99.90
39033;DHT22;24794;51.982;5.878;2023-01-28T02:17:08;5.50;99.90
39033;DHT22;24794;51.982;5.878;2023-01-28T02:18:09;5.40;99.90
39033;DHT22;24794;51.982;5.878;2023-01-28T02:19:10;5.40;99.90
39033;DHT22;24794;51.982;5.878;2023-01-28T02:20:24;5.40;99.90
39033;DHT22;24794;51.982;5.878;2023-01-28T02:30:32;5.20;99.90
39033;DHT22;24794;51.982;5.878;2023-01-28T02:31:48;5.20;99.90
39033;DHT22;24794;51.982;5.878;2023-01-28T02:33:03;5.20;99.90
39033;DHT22;24794;51.982;5.878;2023-01-28T02:35:53;5.10;99.90
39033;DHT22;24794;51.982;5.878;2023-01-28T02:37:32;5.10;99.90
39033;DHT22;24794;51.982;5.878;2023-01-28T02:38:33;5.10;99.90
39033;DHT22;24794;51.982;5.878;2023-01-28T02:39:41;5.10;99.90
39033;DHT22;24794;51.982;5.878;2023-01-28T02:40:47;5.10;99.90
39033;DHT22;24794;51.982;5.878;2023-01-28T02:42:11;5.10;99.90
39033;DHT22;24794;51.982;5.878;2023-01-28T02:43:14;5.00;99.90
39033;DHT22;24794;51.982;5.878;2023-01-28T02:44:14;5.00;99.90
39033;DHT22;24794;51.982;5.878;2023-01-28T02:45:22;5.00;99.90
39033;DHT22;24794;51.982;5.878;2023-01-28T02:47:45;5.00;99.90
39033;DHT22;24794;51.982;5.878;2023-01-28T02:48:58;4.90;99.90
39033;DHT22;24794;51.982;5.878;2023-01-28T02:50:02;4.90;99.90
39033;DHT22;24794;51.982;5.878;2023-01-28T02:51:38;4.90;99.90
39033;DHT22;24794;51.982;5.878;2023-01-28T02:56:01;4.90;99.90
39033;DHT22;24794;51.982;5.878;2023-01-28T02:57:22;4.90;99.90
39033;DHT22;24794;51.982;5.878;2023-01-28T02:58:43;4.90;99.90
39033;DHT22;24794;51.982;5.878;2023-01-28T03:02:22;4.90;99.90
39033;DHT22;24794;51.982;5.878;2023-01-28T03:03:33;5.00;99.90
39033;DHT22;24794;51.982;5.878;2023-01-28T03:05:02;5.00;99.90
39033;DHT22;24794;51.982;5.878;2023-01-28T03:06:10;5.00;99.90
39033;DHT22;24794;51.982;5.878;2023-01-28T03:07:12;4.90;99.90
39033;DHT22;24794;51.982;5.878;2023-01-28T03:08:14;4.90;99.90
39033;DHT22;24794;51.982;5.878;2023-01-28T03:09:34;4.90;99.90
39033;DHT22;24794;51.982;5.878;2023-01-28T03:10:37;4.90;99.90
39033;DHT22;24794;51.982;5.878;2023-01-28T03:11:47;4.90;99.90
39033;DHT22;24794;51.982;5.878;2023-01-28T03:13:06;5.00;99.90
39033;DHT22;24794;51.982;5.878;2023-01-28T03:14:27;5.00;99.90
39033;DHT22;24794;51.982;5.878;2023-01-28T03:15:47;5.00;99.90
39033;DHT22;24794;51.982;5.878;2023-01-28T03:17:11;5.00;99.90
39033;DHT22;24794;51.982;5.878;2023-01-28T03:18:49;5.00;99.90
39033;DHT22;24794;51.982;5.878;2023-01-28T03:20:10;5.00;99.90
39033;DHT22;24794;51.982;5.878;2023-01-28T03:21:40;5.10;99.90
39033;DHT22;24794;51.982;5.878;2023-01-28T03:23:04;5.10;99.90
39033;DHT22;24794;51.982;5.878;2023-01-28T03:24:29;5.00;99.90
39033;DHT22;24794;51.982;5.878;2023-01-28T03:25:53;5.00;99.90
39033;DHT22;24794;51.982;5.878;2023-01-28T03:28:47;4.90;99.90
39033;DHT22;24794;51.982;5.878;2023-01-28T03:30:11;4.90;99.90
39033;DHT22;24794;51.982;5.878;2023-01-28T03:31:32;4.90;99.90
39033;DHT22;24794;51.982;5.878;2023-01-28T03:32:52;4.80;99.90
39033;DHT22;24794;51.982;5.878;2023-01-28T03:34:12;4.80;99.90
39033;DHT22;24794;51.982;5.878;2023-01-28T03:35:33;4.80;99.90
39033;DHT22;24794;51.982;5.878;2023-01-28T03:36:53;4.80;99.90
39033;DHT22;24794;51.982;5.878;2023-01-28T03:37:54;4.80;99.90
39033;DHT22;24794;51.982;5.878;2023-01-28T03:38:59;4.80;99.90
39033;DHT22;24794;51.982;5.878;2023-01-28T03:40:05;4.80;99.90
39033;DHT22;24794;51.982;5.878;2023-01-28T03:41:08;4.80;99.90
39033;DHT22;24794;51.982;5.878;2023-01-28T03:42:12;4.80;99.90
39033;DHT22;24794;51.982;5.878;2023-01-28T03:43:13;4.80;99.90
39033;DHT22;24794;51.982;5.878;2023-01-28T03:44:14;4.80;99.90
39033;DHT22;24794;51.982;5.878;2023-01-28T03:45:33;4.80;99.90
39033;DHT22;24794;51.982;5.878;2023-01-28T03:46:34;4.80;99.90
39033;DHT22;24794;51.982;5.878;2023-01-28T03:47:37;4.80;99.90
39033;DHT22;24794;51.982;5.878;2023-01-28T03:48:40;4.80;99.90
39033;DHT22;24794;51.982;5.878;2023-01-28T03:49:46;4.80;99.90
39033;DHT22;24794;51.982;5.878;2023-01-28T03:50:50;4.80;99.90
39033;DHT22;24794;51.982;5.878;2023-01-28T03:51:51;4.90;99.90
39033;DHT22;24794;51.982;5.878;2023-01-28T03:52:51;4.90;99.90
39033;DHT22;24794;51.982;5.878;2023-01-28T03:53:52;4.90;99.90
39033;DHT22;24794;51.982;5.878;2023-01-28T03:54:53;4.90;99.90
39033;DHT22;24794;51.982;5.878;2023-01-28T03:55:54;4.90;99.90
39033;DHT22;24794;51.982;5.878;2023-01-28T03:56:56;4.90;99.90
39033;DHT22;24794;51.982;5.878;2023-01-28T03:57:56;4.90;99.90
39033;DHT22;24794;51.982;5.878;2023-01-28T03:58:57;4.90;99.90
39033;DHT22;24794;51.982;5.878;2023-01-28T03:59:57;4.90;99.90
39033;DHT22;24794;51.982;5.878;2023-01-28T04:00:58;5.00;99.90
39033;DHT22;24794;51.982;5.878;2023-01-28T04:01:59;5.00;99.90
39033;DHT22;24794;51.982;5.878;2023-01-28T04:02:59;5.00;99.90
39033;DHT22;24794;51.982;5.878;2023-01-28T04:04:00;5.00;99.90
39033;DHT22;24794;51.982;5.878;2023-01-28T04:05:01;5.00;99.90
39033;DHT22;24794;51.982;5.878;2023-01-28T04:06:08;5.00;99.90
39033;DHT22;24794;51.982;5.878;2023-01-28T04:07:10;5.00;99.90
39033;DHT22;24794;51.982;5.878;2023-01-28T04:08:11;5.00;99.90
39033;DHT22;24794;51.982;5.878;2023-01-28T04:09:12;5.00;99.90
39033;DHT22;24794;51.982;5.878;2023-01-28T04:10:13;5.00;99.90
39033;DHT22;24794;51.982;5.878;2023-01-28T04:11:15;5.00;99.90
39033;DHT22;24794;51.982;5.878;2023-01-28T04:12:15;5.00;99.90
39033;DHT22;24794;51.982;5.878;2023-01-28T04:13:16;4.90;99.90
39033;DHT22;24794;51.982;5.878;2023-01-28T04:14:17;5.00;99.90
39033;DHT22;24794;51.982;5.878;2023-01-28T04:15:18;5.00;99.90
39033;DHT22;24794;51.982;5.878;2023-01-28T04:16:19;5.00;99.90
39033;DHT22;24794;51.982;5.878;2023-01-28T04:17:20;5.00;99.90
39033;DHT22;24794;51.982;5.878;2023-01-28T04:18:20;5.00;99.90
39033;DHT22;24794;51.982;5.878;2023-01-28T04:19:27;5.00;99.90
39033;DHT22;24794;51.982;5.878;2023-01-28T04:20:28;5.00;99.90
39033;DHT22;24794;51.982;5.878;2023-01-28T04:21:29;5.00;99.90
39033;DHT22;24794;51.982;5.878;2023-01-28T04:22:29;5.00;99.90
39033;DHT22;24794;51.982;5.878;2023-01-28T04:23:30;5.00;99.90
39033;DHT22;24794;51.982;5.878;2023-01-28T04:24:32;4.90;99.90
39033;DHT22;24794;51.982;5.878;2023-01-28T04:25:33;4.90;99.90
39033;DHT22;24794;51.982;5.878;2023-01-28T04:26:34;4.90;99.90
39033;DHT22;24794;51.982;5.878;2023-01-28T04:27:34;5.00;99.90
39033;DHT22;24794;51.982;5.878;2023-01-28T04:28:35;5.00;99.90
39033;DHT22;24794;51.982;5.878;2023-01-28T04:29:35;5.00;99.90
39033;DHT22;24794;51.982;5.878;2023-01-28T04:30:36;5.00;99.90
39033;DHT22;24794;51.982;5.878;2023-01-28T04:31:36;5.00;99.90
39033;DHT22;24794;51.982;5.878;2023-01-28T04:32:37;5.00;99.90
39033;DHT22;24794;51.982;5.878;2023-01-28T04:33:38;5.00;99.90
39033;DHT22;24794;51.982;5.878;2023-01-28T04:34:38;5.00;99.90
39033;DHT22;24794;51.982;5.878;2023-01-28T04:35:39;5.00;99.90
39033;DHT22;24794;51.982;5.878;2023-01-28T04:36:39;5.00;99.90
39033;DHT22;24794;51.982;5.878;2023-01-28T04:37:40;5.00;99.90
39033;DHT22;24794;51.982;5.878;2023-01-28T04:38:41;5.00;99.90
39033;DHT22;24794;51.982;5.878;2023-01-28T04:39:42;5.00;99.90
39033;DHT22;24794;51.982;5.878;2023-01-28T04:40:42;5.00;99.90
39033;DHT22;24794;51.982;5.878;2023-01-28T04:41:43;5.00;99.90
39033;DHT22;24794;51.982;5.878;2023-01-28T04:42:52;5.00;99.90
39033;DHT22;24794;51.982;5.878;2023-01-28T04:43:53;5.00;99.90
39033;DHT22;24794;51.982;5.878;2023-01-28T04:44:53;5.00;99.90
39033;DHT22;24794;51.982;5.878;2023-01-28T04:45:54;4.90;99.90
39033;DHT22;24794;51.982;5.878;2023-01-28T04:46:55;4.90;99.90
39033;DHT22;24794;51.982;5.878;2023-01-28T04:47:55;4.90;99.90
39033;DHT22;24794;51.982;5.878;2023-01-28T04:48:56;4.90;99.90
39033;DHT22;24794;51.982;5.878;2023-01-28T04:49:56;4.90;99.90
39033;DHT22;24794;51.982;5.878;2023-01-28T04:50:57;4.90;99.90
39033;DHT22;24794;51.982;5.878;2023-01-28T04:51:58;4.90;99.90
39033;DHT22;24794;51.982;5.878;2023-01-28T04:52:58;4.90;99.90
39033;DHT22;24794;51.982;5.878;2023-01-28T04:53:59;4.90;99.90
39033;DHT22;24794;51.982;5.878;2023-01-28T04:54:59;4.90;99.90
39033;DHT22;24794;51.982;5.878;2023-01-28T04:56:01;4.90;99.90
39033;DHT22;24794;51.982;5.878;2023-01-28T04:57:02;4.90;99.90
39033;DHT22;24794;51.982;5.878;2023-01-28T04:58:03;4.90;99.90
39033;DHT22;24794;51.982;5.878;2023-01-28T04:59:03;4.90;99.90
39033;DHT22;24794;51.982;5.878;2023-01-28T05:00:04;4.90;99.90
39033;DHT22;24794;51.982;5.878;2023-01-28T05:01:05;4.80;99.90
39033;DHT22;24794;51.982;5.878;2023-01-28T05:02:06;4.80;99.90
39033;DHT22;24794;51.982;5.878;2023-01-28T05:03:06;4.80;99.90
39033;DHT22;24794;51.982;5.878;2023-01-28T05:04:07;4.80;99.90
39033;DHT22;24794;51.982;5.878;2023-01-28T05:05:09;4.70;99.90
39033;DHT22;24794;51.982;5.878;2023-01-28T05:06:09;4.70;99.90
39033;DHT22;24794;51.982;5.878;2023-01-28T05:07:10;4.70;99.90
39033;DHT22;24794;51.982;5.878;2023-01-28T05:08:11;4.70;99.90
39033;DHT22;24794;51.982;5.878;2023-01-28T05:09:12;4.70;99.90
39033;DHT22;24794;51.982;5.878;2023-01-28T05:10:12;4.60;99.90
39033;DHT22;24794;51.982;5.878;2023-01-28T05:11:13;4.70;99.90
39033;DHT22;24794;51.982;5.878;2023-01-28T05:12:14;4.70;99.90
39033;DHT22;24794;51.982;5.878;2023-01-28T05:13:14;4.70;99.90
39033;DHT22;24794;51.982;5.878;2023-01-28T05:14:15;4.70;99.90
39033;DHT22;24794;51.982;5.878;2023-01-28T05:15:16;4.60;99.90
39033;DHT22;24794;51.982;5.878;2023-01-28T05:16:17;4.60;99.90
39033;DHT22;24794;51.982;5.878;2023-01-28T05:17:18;4.60;99.90
39033;DHT22;24794;51.982;5.878;2023-01-28T05:18:19;4.60;99.90
39033;DHT22;24794;51.982;5.878;2023-01-28T05:19:19;4.60;99.90
39033;DHT22;24794;51.982;5.878;2023-01-28T05:20:20;4.60;99.90
39033;DHT22;24794;51.982;5.878;2023-01-28T05:21:20;4.60;99.90
39033;DHT22;24794;51.982;5.878;2023-01-28T05:22:21;4.60;99.90
39033;DHT22;24794;51.982;5.878;2023-01-28T05:23:22;4.60;99.90
39033;DHT22;24794;51.982;5.878;2023-01-28T05:24:22;4.60;99.90
39033;DHT22;24794;51.982;5.878;2023-01-28T05:25:23;4.60;99.90
39033;DHT22;24794;51.982;5.878;2023-01-28T05:26:23;4.60;99.90
39033;DHT22;24794;51.982;5.878;2023-01-28T05:27:24;4.60;99.90
39033;DHT22;24794;51.982;5.878;2023-01-28T05:28:25;4.60;99.90
39033;DHT22;24794;51.982;5.878;2023-01-28T05:29:25;4.60;99.90
39033;DHT22;24794;51.982;5.878;2023-01-28T05:30:26;4.60;99.90
39033;DHT22;24794;51.982;5.878;2023-01-28T05:31:26;4.60;99.90
39033;DHT22;24794;51.982;5.878;2023-01-28T05:32:27;4.60;99.90
39033;DHT22;24794;51.982;5.878;2023-01-28T05:33:28;4.70;99.90
39033;DHT22;24794;51.982;5.878;2023-01-28T05:34:28;4.70;99.90
39033;DHT22;24794;51.982;5.878;2023-01-28T05:35:29;4.70;99.90
39033;DHT22;24794;51.982;5.878;2023-01-28T05:36:29;4.70;99.90
39033;DHT22;24794;51.982;5.878;2023-01-28T05:37:30;4.70;99.90
39033;DHT22;24794;51.982;5.878;2023-01-28T05:38:31;4.70;99.90
39033;DHT22;24794;51.982;5.878;2023-01-28T05:39:31;4.70;99.90
39033;DHT22;24794;51.982;5.878;2023-01-28T05:40:32;4.70;99.90
39033;DHT22;24794;51.982;5.878;2023-01-28T05:41:33;4.80;99.90
39033;DHT22;24794;51.982;5.878;2023-01-28T05:42:34;4.80;99.90
39033;DHT22;24794;51.982;5.878;2023-01-28T05:43:34;4.80;99.90
39033;DHT22;24794;51.982;5.878;2023-01-28T05:44:35;4.80;99.90
39033;DHT22;24794;51.982;5.878;2023-01-28T05:45:37;4.80;99.90
39033;DHT22;24794;51.982;5.878;2023-01-28T05:46:37;4.80;99.90
39033;DHT22;24794;51.982;5.878;2023-01-28T05:47:40;4.80;99.90
39033;DHT22;24794;51.982;5.878;2023-01-28T05:48:40;4.80;99.90
39033;DHT22;24794;51.982;5.878;2023-01-28T05:49:41;4.80;99.90
39033;DHT22;24794;51.982;5.878;2023-01-28T05:50:42;4.70;99.90
39033;DHT22;24794;51.982;5.878;2023-01-28T05:51:43;4.80;99.90
39033;DHT22;24794;51.982;5.878;2023-01-28T05:52:43;4.70;99.90
39033;DHT22;24794;51.982;5.878;2023-01-28T05:53:44;4.70;99.90
39033;DHT22;24794;51.982;5.878;2023-01-28T05:54:45;4.70;99.90
39033;DHT22;24794;51.982;5.878;2023-01-28T05:55:52;4.70;99.90
39033;DHT22;24794;51.982;5.878;2023-01-28T05:56:52;4.70;99.90
39033;DHT22;24794;51.982;5.878;2023-01-28T05:57:53;4.70;99.90
39033;DHT22;24794;51.982;5.878;2023-01-28T05:58:53;4.80;99.90
39033;DHT22;24794;51.982;5.878;2023-01-28T05:59:54;4.70;99.90
39033;DHT22;24794;51.982;5.878;2023-01-28T06:00:55;4.70;99.90
39033;DHT22;24794;51.982;5.878;2023-01-28T06:01:55;4.60;99.90
39033;DHT22;24794;51.982;5.878;2023-01-28T06:02:56;4.60;99.90
39033;DHT22;24794;51.982;5.878;2023-01-28T06:03:57;4.60;99.90
39033;DHT22;24794;51.982;5.878;2023-01-28T06:04:59;4.60;99.90
39033;DHT22;24794;51.982;5.878;2023-01-28T06:05:59;4.60;99.90
39033;DHT22;24794;51.982;5.878;2023-01-28T06:07:00;4.60;99.90
39033;DHT22;24794;51.982;5.878;2023-01-28T06:08:00;4.50;99.90
39033;DHT22;24794;51.982;5.878;2023-01-28T06:09:01;4.50;99.90
39033;DHT22;24794;51.982;5.878;2023-01-28T06:10:02;4.50;99.90
39033;DHT22;24794;51.982;5.878;2023-01-28T06:11:02;4.50;99.90
39033;DHT22;24794;51.982;5.878;2023-01-28T06:12:03;4.50;99.90
39033;DHT22;24794;51.982;5.878;2023-01-28T06:13:04;4.50;99.90
39033;DHT22;24794;51.982;5.878;2023-01-28T06:14:04;4.50;99.90
39033;DHT22;24794;51.982;5.878;2023-01-28T06:15:05;4.50;99.90
39033;DHT22;24794;51.982;5.878;2023-01-28T06:16:07;4.50;99.90
39033;DHT22;24794;51.982;5.878;2023-01-28T06:17:08;4.50;99.90
39033;DHT22;24794;51.982;5.878;2023-01-28T06:18:08;4.50;99.90
39033;DHT22;24794;51.982;5.878;2023-01-28T06:19:09;4.50;99.90
39033;DHT22;24794;51.982;5.878;2023-01-28T06:20:10;4.50;99.90
39033;DHT22;24794;51.982;5.878;2023-01-28T06:21:10;4.50;99.90
39033;DHT22;24794;51.982;5.878;2023-01-28T06:22:11;4.60;99.90
39033;DHT22;24794;51.982;5.878;2023-01-28T06:23:12;4.60;99.90
39033;DHT22;24794;51.982;5.878;2023-01-28T06:24:12;4.50;99.90
39033;DHT22;24794;51.982;5.878;2023-01-28T06:25:13;4.50;99.90
39033;DHT22;24794;51.982;5.878;2023-01-28T06:26:14;4.60;99.90
39033;DHT22;24794;51.982;5.878;2023-01-28T06:27:14;4.50;99.90
39033;DHT22;24794;51.982;5.878;2023-01-28T06:28:15;4.50;99.90
39033;DHT22;24794;51.982;5.878;2023-01-28T06:29:16;4.50;99.90
39033;DHT22;24794;51.982;5.878;2023-01-28T06:30:16;4.50;99.90
39033;DHT22;24794;51.982;5.878;2023-01-28T06:31:17;4.50;99.90
39033;DHT22;24794;51.982;5.878;2023-01-28T06:32:18;4.50;99.90
39033;DHT22;24794;51.982;5.878;2023-01-28T06:33:19;4.50;99.90
39033;DHT22;24794;51.982;5.878;2023-01-28T06:34:20;4.50;99.90
39033;DHT22;24794;51.982;5.878;2023-01-28T06:35:21;4.50;99.90
39033;DHT22;24794;51.982;5.878;2023-01-28T06:36:21;4.50;99.90
39033;DHT22;24794;51.982;5.878;2023-01-28T06:37:22;4.50;99.90
39033;DHT22;24794;51.982;5.878;2023-01-28T06:38:22;4.60;99.90
39033;DHT22;24794;51.982;5.878;2023-01-28T06:39:23;4.50;99.90
39033;DHT22;24794;51.982;5.878;2023-01-28T06:40:26;4.60;99.90
39033;DHT22;24794;51.982;5.878;2023-01-28T06:41:26;4.50;99.90
39033;DHT22;24794;51.982;5.878;2023-01-28T06:42:27;4.50;99.90
39033;DHT22;24794;51.982;5.878;2023-01-28T06:43:28;4.50;99.90
39033;DHT22;24794;51.982;5.878;2023-01-28T06:44:30;4.50;99.90
39033;DHT22;24794;51.982;5.878;2023-01-28T06:45:31;4.50;99.90
39033;DHT22;24794;51.982;5.878;2023-01-28T06:46:31;4.50;99.90
39033;DHT22;24794;51.982;5.878;2023-01-28T06:47:32;4.50;99.90
39033;DHT22;24794;51.982;5.878;2023-01-28T06:48:32;4.40;99.90
39033;DHT22;24794;51.982;5.878;2023-01-28T06:49:33;4.40;99.90
39033;DHT22;24794;51.982;5.878;2023-01-28T06:50:34;4.40;99.90
39033;DHT22;24794;51.982;5.878;2023-01-28T06:51:34;4.40;99.90
39033;DHT22;24794;51.982;5.878;2023-01-28T06:52:35;4.40;99.90
39033;DHT22;24794;51.982;5.878;2023-01-28T06:53:35;4.40;99.90
39033;DHT22;24794;51.982;5.878;2023-01-28T06:54:36;4.40;99.90
39033;DHT22;24794;51.982;5.878;2023-01-28T06:55:36;4.40;99.90
39033;DHT22;24794;51.982;5.878;2023-01-28T06:56:37;4.40;99.90
39033;DHT22;24794;51.982;5.878;2023-01-28T06:57:38;4.40;99.90
39033;DHT22;24794;51.982;5.878;2023-01-28T06:58:39;4.40;99.90
39033;DHT22;24794;51.982;5.878;2023-01-28T06:59:40;4.40;99.90
39033;DHT22;24794;51.982;5.878;2023-01-28T07:00:40;4.40;99.90
39033;DHT22;24794;51.982;5.878;2023-01-28T07:01:41;4.40;99.90
39033;DHT22;24794;51.982;5.878;2023-01-28T07:02:41;4.40;99.90
39033;DHT22;24794;51.982;5.878;2023-01-28T07:03:42;4.40;99.90
39033;DHT22;24794;51.982;5.878;2023-01-28T07:04:43;4.40;99.90
39033;DHT22;24794;51.982;5.878;2023-01-28T07:05:43;4.40;99.90
39033;DHT22;24794;51.982;5.878;2023-01-28T07:06:44;4.40;99.90
39033;DHT22;24794;51.982;5.878;2023-01-28T07:07:44;4.40;99.90